Terminal Aerodrome Forecast
Issued by NWS

Home | Current Version | Previous Version | Text Only | Print | Product List | Glossary On
Versions: 1 2 3 4 5 6 7 8 9 10 11 12 13 14 15 16 17 18
000
FTUS43 KGRR 251300 AAA
TAFAZO
TAF AMD
KAZO 251300Z 2513/2612 05012G18KT P6SM OVC008
      TEMPO 2513/2516 4SM -SHSN OVC005
     FM251600 06012G18KT 6SM -SHSN BR OVC011
     FM252100 04012G18KT 6SM BR OVC015
     FM260300 03007KT P6SM BKN025=

USA.gov is the U.S. government's official web portal to all federal, state and local government web resources and services.